Forside
METAR-TAF:

METAR-TAF

Lufthavne :

Marquette, Michigan, USA

Breddekreds: 46-21-13N, længdekreds: 087-23-45W, højde: 372 m

Aktuelle vejr

Denne rapport blev lavet for 23 minutter siden, kl. 12:47 UTC
Vind 11 kt fra nordvest med vindstød på up til 16 kt
Temperatur 5°C
Fugtighed 70%
Tryk 1025 hPa
Sigt: 16.1 km
Nogle få skyer i en højde af 2000 ft
Spredte skyer i en højde af 5000 ft

METAR: KSAW 111247Z 32011G16KT 10SM FEW020 SCT050 05/00 A3028

Tid: 09:10 (13:10 UTC)

Vejrudsigter

Denne rapport blev lavet for 1 time og 49 minutter siden, kl. 11:21 UTC
Foreløbig gælder fra 11 på 12 UTC til 12 på 12 UTC
Vind 8 kt fra nordnordvest
Sigt: 10 km
Brudte skyer i en højde af 5000 ft
Fra 11 på 1400 UTC
Vind 12 kt fra nord med vindstød på up til 19 kt
Sigt: 10 km
Nogle få skyer i en højde af 6000 ft
Fra 12 på 0200 UTC
Vind 3 kt fra varierende retninger
Sigt: 10 km
skyfri

TAF: KSAW 111121Z 1112/1212 33008KT P6SM BKN050 FM111400 35012G19KT P6SM FEW060 FM120200 VRB03KT P6SM SKC

Vejrobservationer og prognoser fra mere end 4000 lufthavne (METAR og TAF).

De gule og røde prikker repræsenterer de meteorologiske stationer.

Flyt musen over at se navnet på stationen.

Så klik over at se vejr observationer og prognoser.

At skifte det kort: Klik på de grønne knapper med et sort kors for at zoome ind; på den grønne knap med en bindestreg for at zoome ud; eller på de grønne pile for tilstødende kort.


METAR-TAF: